Time;durP1;ratioP1;P1;durP2;ratioP2;P2;SDS_P1;SDS_P2;PMS_P1;PMS_P2;Temp;Humidity;BMP_temperature;BMP_pressure;BME280_temperature;BME280_humidity;BME280_pressure;Samples;Min_cycle;Max_cycle;Signal;HPM_P1;HPM_P2
2023/08/22 00:00:29;;;;;;;8.60;4.13;;;19.40;99.90;;;;;;5057859;28;20036;-90
2023/08/22 00:02:55;;;;;;;7.80;3.67;;;19.30;99.90;;;;;;5059991;28;20053;-90
2023/08/22 00:05:21;;;;;;;7.75;3.95;;;19.30;99.90;;;;;;5090945;28;20068;-89
2023/08/22 00:07:48;;;;;;;5.78;2.40;;;19.30;99.90;;;;;;5065971;28;20044;-90
2023/08/22 00:10:14;;;;;;;6.68;2.50;;;19.30;99.90;;;;;;5059376;28;20327;-90
2023/08/22 00:12:40;;;;;;;5.50;2.58;;;19.30;99.90;;;;;;5065059;28;20029;-90
2023/08/22 00:15:10;;;;;;;5.38;3.00;;;19.30;99.90;;;;;;5061878;28;20048;-90
2023/08/22 00:17:40;;;;;;;5.38;2.38;;;19.30;99.90;;;;;;5072779;28;20049;-89
2023/08/22 00:20:09;;;;;;;7.78;3.13;;;19.30;99.90;;;;;;5056616;28;20051;-90
2023/08/22 00:22:35;;;;;;;9.73;3.65;;;19.30;99.90;;;;;;5048251;28;20141;-89
2023/08/22 00:25:02;;;;;;;7.57;4.13;;;19.30;99.90;;;;;;5058937;28;20104;-90
2023/08/22 00:27:28;;;;;;;10.52;3.95;;;19.30;99.90;;;;;;5055197;28;20111;-90
2023/08/22 00:29:54;;;;;;;9.07;4.53;;;19.20;99.90;;;;;;5055724;28;20125;-90
2023/08/22 00:32:20;;;;;;;7.65;4.13;;;19.20;99.90;;;;;;5051501;28;20703;-90
2023/08/22 00:34:46;;;;;;;8.48;4.75;;;19.20;99.90;;;;;;5049274;28;20037;-89
2023/08/22 00:37:12;;;;;;;8.82;4.28;;;19.20;99.90;;;;;;5065235;28;20403;-90
2023/08/22 00:39:37;;;;;;;8.98;5.15;;;19.20;99.90;;;;;;5053410;28;20039;-89
2023/08/22 00:42:03;;;;;;;9.43;4.47;;;19.20;99.90;;;;;;5048628;28;20570;-90
2023/08/22 00:44:29;;;;;;;6.72;3.33;;;19.20;99.90;;;;;;5052343;28;20368;-89
2023/08/22 00:46:55;;;;;;;10.35;5.70;;;19.20;99.90;;;;;;5051150;28;20045;-90
2023/08/22 00:49:21;;;;;;;8.68;4.80;;;19.20;99.90;;;;;;5058520;28;20102;-90
2023/08/22 00:51:47;;;;;;;8.35;5.38;;;19.10;99.90;;;;;;5050826;28;20032;-90
2023/08/22 00:54:14;;;;;;;10.75;5.80;;;19.10;99.90;;;;;;5054503;28;20037;-89
2023/08/22 00:56:41;;;;;;;10.15;5.00;;;19.00;99.90;;;;;;5053010;28;20040;-90
2023/08/22 00:59:08;;;;;;;10.32;6.82;;;19.00;99.90;;;;;;5052149;28;20129;-89
2023/08/22 01:01:34;;;;;;;11.93;5.82;;;19.00;99.90;;;;;;5056871;28;20051;-91
2023/08/22 01:04:00;;;;;;;8.77;4.88;;;19.00;99.90;;;;;;5049332;28;20187;-90
2023/08/22 01:06:52;;;;;;;12.00;6.90;;;19.00;99.90;;;;;;5053209;28;20120;-90
2023/08/22 01:09:24;;;;;;;9.30;5.63;;;18.90;99.90;;;;;;5058223;28;20043;-89
2023/08/22 01:11:55;;;;;;;8.07;4.03;;;18.90;99.90;;;;;;5048598;28;20562;-90
2023/08/22 01:14:23;;;;;;;8.93;4.63;;;18.90;99.90;;;;;;5050113;28;20059;-89
2023/08/22 01:16:49;;;;;;;9.68;4.82;;;18.90;99.90;;;;;;5052557;28;20039;-89
2023/08/22 01:19:18;;;;;;;8.88;4.47;;;18.90;99.90;;;;;;5041710;28;20561;-90
2023/08/22 01:21:51;;;;;;;8.32;4.32;;;18.80;99.90;;;;;;5055098;28;20045;-91
2023/08/22 01:24:17;;;;;;;6.07;2.85;;;18.80;99.90;;;;;;5065602;28;20051;-89
2023/08/22 01:26:44;;;;;;;7.47;4.55;;;18.80;99.90;;;;;;5058606;28;20037;-90
2023/08/22 01:29:13;;;;;;;10.85;5.10;;;18.80;99.90;;;;;;5057324;28;20074;-90
2023/08/22 01:32:01;;;;;;;8.70;4.85;;;18.80;99.90;;;;;;5053289;28;20040;-90
2023/08/22 01:34:29;;;;;;;10.25;5.25;;;18.80;99.90;;;;;;5054062;28;20037;-90
2023/08/22 01:36:58;;;;;;;8.80;3.70;;;18.80;99.90;;;;;;5052514;28;20484;-90
2023/08/22 01:39:27;;;;;;;11.82;6.18;;;18.70;99.90;;;;;;5050864;28;20171;-89
2023/08/22 01:41:55;;;;;;;11.10;5.97;;;18.70;99.90;;;;;;5054725;28;20028;-90
2023/08/22 01:44:21;;;;;;;10.68;5.70;;;18.70;99.90;;;;;;5040720;28;20045;-90
2023/08/22 01:46:46;;;;;;;12.07;5.60;;;18.70;99.90;;;;;;5053933;28;20068;-90
2023/08/22 01:49:12;;;;;;;10.05;5.00;;;18.70;99.90;;;;;;5052696;28;20376;-90
2023/08/22 01:51:38;;;;;;;10.02;5.85;;;18.70;99.90;;;;;;5058260;28;20036;-90
2023/08/22 01:54:03;;;;;;;10.52;5.28;;;18.70;99.90;;;;;;5054705;28;20053;-90
2023/08/22 01:56:30;;;;;;;8.30;3.63;;;18.70;99.90;;;;;;5050252;28;20037;-90
2023/08/22 01:58:55;;;;;;;10.75;5.40;;;18.70;99.90;;;;;;5038872;28;20041;-89
2023/08/22 02:01:23;;;;;;;6.95;4.45;;;18.60;99.90;;;;;;5031195;28;20051;-90
2023/08/22 02:03:49;;;;;;;10.65;5.03;;;18.60;99.90;;;;;;5049935;28;20080;-89
2023/08/22 02:06:15;;;;;;;7.15;4.03;;;18.60;99.90;;;;;;5059023;28;20045;-90
2023/08/22 02:08:41;;;;;;;7.95;4.55;;;18.60;99.90;;;;;;5053352;28;20048;-89
2023/08/22 02:11:07;;;;;;;8.73;5.20;;;18.50;99.90;;;;;;5050952;28;20475;-89
2023/08/22 02:13:33;;;;;;;12.27;6.97;;;18.50;99.90;;;;;;5054960;28;20044;-90
2023/08/22 02:16:00;;;;;;;12.68;6.13;;;18.50;99.90;;;;;;5038481;28;20033;-90
2023/08/22 02:18:26;;;;;;;7.15;4.32;;;18.50;99.90;;;;;;5049435;28;20049;-90
2023/08/22 02:20:54;;;;;;;10.13;5.78;;;18.50;99.90;;;;;;5058160;28;20093;-90
2023/08/22 02:23:19;;;;;;;9.63;5.65;;;18.50;99.90;;;;;;5056271;28;20086;-90
2023/08/22 02:25:46;;;;;;;11.45;6.28;;;18.50;99.90;;;;;;5056688;28;20044;-90
2023/08/22 02:28:12;;;;;;;10.18;5.78;;;18.50;99.90;;;;;;5065603;28;20047;-90
2023/08/22 02:30:37;;;;;;;13.23;6.53;;;18.40;99.90;;;;;;5055935;28;20048;-90
2023/08/22 02:33:04;;;;;;;10.18;5.13;;;18.40;99.90;;;;;;5088897;28;20313;-89
2023/08/22 02:35:29;;;;;;;9.68;6.38;;;18.30;99.90;;;;;;5060625;28;20041;-89
2023/08/22 02:37:55;;;;;;;8.50;5.20;;;18.30;99.90;;;;;;5052377;28;20403;-89
2023/08/22 02:40:21;;;;;;;10.30;5.55;;;18.20;99.90;;;;;;5055148;28;20029;-90
2023/08/22 02:42:46;;;;;;;11.63;5.80;;;18.20;99.90;;;;;;5040052;28;20044;-90
2023/08/22 02:45:12;;;;;;;5.20;3.15;;;18.20;99.90;;;;;;5059146;28;20034;-90
2023/08/22 02:47:38;;;;;;;9.77;5.50;;;18.20;99.90;;;;;;5063364;28;20395;-89
2023/08/22 02:50:04;;;;;;;12.60;5.60;;;18.20;99.90;;;;;;5085158;28;20040;-89
2023/08/22 02:52:31;;;;;;;9.48;5.43;;;18.20;99.90;;;;;;5057172;28;20040;-90
2023/08/22 02:54:56;;;;;;;10.10;6.30;;;18.20;99.90;;;;;;5056245;28;20041;-89
2023/08/22 02:57:22;;;;;;;10.52;6.80;;;18.20;99.90;;;;;;5055470;28;20048;-89
2023/08/22 02:59:48;;;;;;;11.82;5.93;;;18.10;99.90;;;;;;5058810;28;20067;-89
2023/08/22 03:02:13;;;;;;;10.60;6.03;;;18.10;99.90;;;;;;5055038;28;20040;-90
2023/08/22 03:04:39;;;;;;;9.30;4.93;;;18.10;99.90;;;;;;5054364;28;20048;-90
2023/08/22 03:07:05;;;;;;;14.85;6.50;;;18.10;99.90;;;;;;5051930;28;20484;-90
2023/08/22 03:09:32;;;;;;;8.77;5.68;;;18.00;99.90;;;;;;5054827;28;20049;-90
2023/08/22 03:11:58;;;;;;;10.10;4.72;;;18.00;99.90;;;;;;5052680;28;20029;-89
2023/08/22 03:14:25;;;;;;;13.27;6.78;;;17.90;99.90;;;;;;5044361;28;20036;-90
2023/08/22 03:16:51;;;;;;;9.20;5.32;;;17.90;99.90;;;;;;5056223;28;20067;-89
2023/08/22 03:19:16;;;;;;;8.35;4.88;;;17.90;99.90;;;;;;5057224;28;20033;-89
2023/08/22 03:21:42;;;;;;;6.90;3.92;;;17.70;99.90;;;;;;5060423;28;20093;-90
2023/08/22 03:24:08;;;;;;;9.52;5.78;;;17.80;99.90;;;;;;5054148;28;20037;-89
2023/08/22 03:26:33;;;;;;;6.80;4.32;;;17.80;99.90;;;;;;5036111;28;20078;-89
2023/08/22 03:29:00;;;;;;;8.88;5.10;;;17.80;99.90;;;;;;5053393;28;20393;-90
2023/08/22 03:31:27;;;;;;;8.60;5.88;;;17.70;99.90;;;;;;5055173;28;20500;-89
2023/08/22 03:33:52;;;;;;;8.68;5.45;;;17.70;99.90;;;;;;5054566;28;20237;-89
2023/08/22 03:36:19;;;;;;;10.43;5.63;;;17.70;99.90;;;;;;5058711;28;20381;-89
2023/08/22 03:38:46;;;;;;;9.32;6.07;;;17.70;99.90;;;;;;5056123;28;20037;-89
2023/08/22 03:41:12;;;;;;;10.73;6.30;;;17.60;99.90;;;;;;5088373;28;20108;-89
2023/08/22 03:43:38;;;;;;;9.30;4.65;;;17.50;99.90;;;;;;5039244;28;20116;-91
2023/08/22 03:46:04;;;;;;;10.07;5.35;;;17.50;99.90;;;;;;5069682;28;20041;-90
2023/08/22 03:48:29;;;;;;;9.00;5.53;;;17.50;99.90;;;;;;5057455;28;20056;-90
2023/08/22 03:50:55;;;;;;;8.60;4.50;;;17.40;99.90;;;;;;5066134;28;20041;-89
2023/08/22 03:53:22;;;;;;;8.93;4.82;;;17.40;99.90;;;;;;5056409;28;20037;-90
2023/08/22 03:55:48;;;;;;;11.50;5.65;;;17.40;99.90;;;;;;5052750;28;20047;-90
2023/08/22 03:58:14;;;;;;;9.15;5.65;;;17.30;99.90;;;;;;5059588;28;20036;-88
2023/08/22 04:00:41;;;;;;;6.65;3.88;;;17.30;99.90;;;;;;5060619;28;20043;-89
2023/08/22 04:03:07;;;;;;;10.73;5.45;;;17.20;99.90;;;;;;5049781;28;20064;-89
2023/08/22 04:05:32;;;;;;;9.98;5.85;;;17.40;99.90;;;;;;5055977;28;20045;-90
2023/08/22 04:07:58;;;;;;;6.55;4.05;;;17.30;99.90;;;;;;5051670;28;20041;-90
2023/08/22 04:10:23;;;;;;;8.13;4.78;;;17.20;99.90;;;;;;5047549;28;20033;-89
2023/08/22 04:12:49;;;;;;;8.32;4.50;;;17.20;99.90;;;;;;5063435;28;20043;-89
2023/08/22 04:15:15;;;;;;;7.97;4.72;;;17.20;99.90;;;;;;5054453;28;20490;-89
2023/08/22 04:17:41;;;;;;;7.20;4.20;;;17.10;99.90;;;;;;5054545;28;20047;-89
2023/08/22 04:20:10;;;;;;;9.02;4.50;;;17.10;99.90;;;;;;5057127;28;20048;-90
2023/08/22 04:22:36;;;;;;;7.10;3.65;;;17.10;99.90;;;;;;5055639;28;20040;-89
2023/08/22 04:25:02;;;;;;;9.80;5.50;;;17.10;99.90;;;;;;5049987;28;20036;-89
2023/08/22 04:27:28;;;;;;;9.25;6.15;;;17.10;99.90;;;;;;5062309;28;20036;-90
2023/08/22 04:29:54;;;;;;;5.57;3.28;;;17.10;99.90;;;;;;5049164;28;20071;-89
2023/08/22 04:32:19;;;;;;;10.20;5.53;;;17.10;99.90;;;;;;5054957;28;20510;-89
2023/08/22 04:34:45;;;;;;;8.43;4.30;;;17.00;99.90;;;;;;5049098;28;20562;-89
2023/08/22 04:37:11;;;;;;;8.07;4.63;;;17.00;99.90;;;;;;5070536;28;20044;-89
2023/08/22 04:39:36;;;;;;;8.73;4.45;;;17.00;99.90;;;;;;5054379;28;20040;-89
2023/08/22 04:42:02;;;;;;;8.75;4.32;;;17.00;99.90;;;;;;5050240;28;20065;-90
2023/08/22 04:44:28;;;;;;;7.25;4.40;;;16.90;99.90;;;;;;5057346;28;20064;-90
2023/08/22 04:46:53;;;;;;;7.93;4.47;;;16.90;99.90;;;;;;5068385;28;20048;-89
2023/08/22 04:49:19;;;;;;;9.88;4.80;;;16.90;99.90;;;;;;5050538;28;20029;-90
2023/08/22 04:51:44;;;;;;;8.88;5.30;;;16.90;99.90;;;;;;5052691;28;20082;-87
2023/08/22 04:54:11;;;;;;;10.50;5.78;;;16.90;99.90;;;;;;5057435;28;20557;-85
2023/08/22 04:56:36;;;;;;;10.77;6.03;;;16.80;99.90;;;;;;5052437;28;20044;-85
2023/08/22 04:59:02;;;;;;;10.63;5.75;;;16.80;99.90;;;;;;5054217;28;20083;-86
2023/08/22 05:01:28;;;;;;;10.00;5.18;;;16.80;99.90;;;;;;5054370;28;20041;-85
2023/08/22 05:03:53;;;;;;;9.20;5.03;;;16.80;99.90;;;;;;5054270;28;20052;-86
2023/08/22 05:06:20;;;;;;;12.93;6.40;;;16.80;99.90;;;;;;5064554;28;20051;-86
2023/08/22 05:08:46;;;;;;;8.48;5.38;;;16.80;99.90;;;;;;5056147;28;20036;-86
2023/08/22 05:11:11;;;;;;;10.02;6.45;;;16.80;99.90;;;;;;5057811;28;20380;-83
2023/08/22 05:13:37;;;;;;;8.63;5.22;;;16.80;99.90;;;;;;5054957;28;20414;-84
2023/08/22 05:16:03;;;;;;;14.90;6.72;;;16.80;99.90;;;;;;5054914;28;20468;-87
2023/08/22 05:18:29;;;;;;;10.77;6.90;;;16.80;99.90;;;;;;5055530;28;20041;-89
2023/08/22 05:20:54;;;;;;;8.38;6.25;;;16.80;99.90;;;;;;5056118;28;20483;-88
2023/08/22 05:23:20;;;;;;;9.02;5.35;;;16.80;99.90;;;;;;5055463;28;20495;-88
2023/08/22 05:25:46;;;;;;;10.68;6.63;;;16.80;99.90;;;;;;5051506;28;20511;-87
2023/08/22 05:28:12;;;;;;;9.48;6.05;;;16.70;99.90;;;;;;5088597;28;20075;-88
2023/08/22 05:30:38;;;;;;;10.18;6.20;;;16.70;99.90;;;;;;5050757;28;20117;-87
2023/08/22 05:33:07;;;;;;;7.85;5.45;;;16.70;99.90;;;;;;5085332;28;20044;-88
2023/08/22 05:35:33;;;;;;;10.55;6.20;;;16.80;99.90;;;;;;5059439;28;20041;-87
2023/08/22 05:37:59;;;;;;;10.10;6.20;;;16.80;99.90;;;;;;5055937;28;20106;-87
2023/08/22 05:40:25;;;;;;;9.63;6.05;;;16.80;99.90;;;;;;5054181;28;20071;-89
2023/08/22 05:42:52;;;;;;;11.73;8.13;;;16.80;99.90;;;;;;5054471;28;20044;-88
2023/08/22 05:45:18;;;;;;;13.05;7.38;;;16.90;99.90;;;;;;5055297;28;20116;-88
2023/08/22 05:47:44;;;;;;;10.82;6.43;;;16.90;99.90;;;;;;5053265;28;20113;-89
2023/08/22 05:50:10;;;;;;;9.02;6.05;;;16.90;99.90;;;;;;5053905;28;20043;-89
2023/08/22 05:52:36;;;;;;;17.45;9.48;;;16.90;99.90;;;;;;5093363;28;20516;-90
2023/08/22 05:55:03;;;;;;;11.43;8.68;;;16.90;99.90;;;;;;5056863;28;20045;-90
2023/08/22 05:57:29;;;;;;;14.77;9.02;;;17.00;99.90;;;;;;5054927;28;20127;-85
2023/08/22 05:59:55;;;;;;;12.63;8.45;;;17.00;99.90;;;;;;5059070;28;20115;-83
2023/08/22 06:02:21;;;;;;;14.48;9.15;;;17.00;99.90;;;;;;5057222;28;20037;-85
2023/08/22 06:04:47;;;;;;;13.32;8.13;;;17.00;99.90;;;;;;5059632;28;20044;-84
2023/08/22 06:07:13;;;;;;;15.77;8.68;;;17.10;99.90;;;;;;5062271;28;20032;-84
2023/08/22 06:09:39;;;;;;;13.23;9.38;;;17.10;99.90;;;;;;5058994;28;20528;-82
2023/08/22 06:12:05;;;;;;;12.38;7.30;;;17.10;99.90;;;;;;5060663;28;20041;-83
2023/08/22 06:14:31;;;;;;;18.92;10.73;;;17.20;99.90;;;;;;5092552;28;20059;-83
2023/08/22 06:17:00;;;;;;;16.48;8.85;;;17.20;99.90;;;;;;5057493;28;20032;-83
2023/08/22 06:19:25;;;;;;;13.02;7.90;;;17.30;99.90;;;;;;5056251;28;20063;-84
2023/08/22 06:21:51;;;;;;;15.70;9.30;;;17.30;99.90;;;;;;5061152;28;20033;-83
2023/08/22 06:24:17;;;;;;;11.10;7.95;;;17.30;99.90;;;;;;5055634;28;20098;-83
2023/08/22 06:26:43;;;;;;;9.68;6.38;;;17.40;99.90;;;;;;5056063;28;20837;-83
2023/08/22 06:29:09;;;;;;;13.45;7.78;;;17.40;99.90;;;;;;5056217;28;20045;-83
2023/08/22 06:31:35;;;;;;;13.23;9.00;;;17.40;99.90;;;;;;5056981;28;20044;-83
2023/08/22 06:34:01;;;;;;;12.00;8.25;;;17.50;99.90;;;;;;5055956;28;20044;-83
2023/08/22 06:36:27;;;;;;;18.52;9.38;;;17.50;99.90;;;;;;5059929;28;20037;-84
2023/08/22 06:38:53;;;;;;;9.80;7.00;;;17.50;99.90;;;;;;5057884;28;20047;-83
2023/08/22 06:41:19;;;;;;;17.45;9.15;;;17.50;99.90;;;;;;5084758;28;20476;-83
2023/08/22 06:43:46;;;;;;;13.93;8.25;;;17.50;99.90;;;;;;5060555;28;20040;-82
2023/08/22 06:46:12;;;;;;;12.45;8.40;;;17.50;99.90;;;;;;5088381;28;20029;-83
2023/08/22 06:48:38;;;;;;;11.65;6.75;;;17.50;99.90;;;;;;5051890;28;20037;-84
2023/08/22 06:51:03;;;;;;;15.52;8.95;;;17.60;99.90;;;;;;5055221;28;20171;-80
2023/08/22 06:53:29;;;;;;;13.48;8.10;;;17.60;99.90;;;;;;5060088;28;20037;-83
2023/08/22 06:55:55;;;;;;;13.30;7.30;;;17.70;99.90;;;;;;5052496;28;20047;-79
2023/08/22 06:58:21;;;;;;;14.45;7.68;;;17.80;99.90;;;;;;5086625;28;20376;-83
2023/08/22 07:00:48;;;;;;;11.05;6.85;;;17.90;99.90;;;;;;5041266;28;20075;-83
2023/08/22 07:03:14;;;;;;;14.90;7.55;;;18.00;99.90;;;;;;5054670;28;20131;-84
2023/08/22 07:05:40;;;;;;;10.32;7.63;;;18.00;99.90;;;;;;5047448;28;20040;-83
2023/08/22 07:08:06;;;;;;;13.60;7.25;;;18.10;99.90;;;;;;5057262;28;20488;-83
2023/08/22 07:10:32;;;;;;;15.90;6.82;;;18.10;99.90;;;;;;5057679;28;20133;-84
2023/08/22 07:12:57;;;;;;;14.25;6.72;;;18.20;99.90;;;;;;5055425;28;20411;-84
2023/08/22 07:15:23;;;;;;;12.57;7.10;;;18.20;99.90;;;;;;5057820;28;20059;-85
2023/08/22 07:17:49;;;;;;;12.65;7.40;;;18.30;99.90;;;;;;5054615;28;20044;-85
2023/08/22 07:20:14;;;;;;;9.93;5.00;;;18.30;99.90;;;;;;5083202;28;20044;-85
2023/08/22 07:22:40;;;;;;;11.25;7.10;;;18.40;99.90;;;;;;5034304;28;20033;-84
2023/08/22 07:25:06;;;;;;;10.98;6.90;;;18.50;99.90;;;;;;5049261;28;20534;-82
2023/08/22 07:27:32;;;;;;;11.90;7.38;;;18.50;99.90;;;;;;5056305;28;20046;-81
2023/08/22 07:29:58;;;;;;;10.80;6.57;;;18.60;99.90;;;;;;5053125;28;20792;-82
2023/08/22 07:32:23;;;;;;;13.23;6.95;;;18.60;99.90;;;;;;5055699;28;20552;-83
2023/08/22 07:34:49;;;;;;;11.98;6.10;;;18.70;99.90;;;;;;5052680;28;20037;-82
2023/08/22 07:37:15;;;;;;;10.88;5.80;;;18.80;99.90;;;;;;5052474;28;20139;-83
2023/08/22 07:39:41;;;;;;;12.40;4.95;;;18.90;99.90;;;;;;5052646;28;20043;-83
2023/08/22 07:42:08;;;;;;;13.35;5.05;;;19.00;99.90;;;;;;5054782;28;20148;-83
2023/08/22 07:44:35;;;;;;;11.00;4.90;;;19.10;99.90;;;;;;5054718;28;20079;-83
2023/08/22 07:47:02;;;;;;;9.63;4.70;;;19.20;99.90;;;;;;5055108;28;20495;-82
2023/08/22 07:49:27;;;;;;;7.57;4.63;;;19.30;99.90;;;;;;5056539;28;20087;-83
2023/08/22 07:51:53;;;;;;;8.45;4.45;;;19.40;99.90;;;;;;5060828;28;20504;-83
2023/08/22 07:54:19;;;;;;;10.25;5.28;;;19.50;99.90;;;;;;5084828;28;20411;-84
2023/08/22 07:56:45;;;;;;;7.88;4.03;;;19.60;99.90;;;;;;5054223;28;20040;-83
2023/08/22 07:59:14;;;;;;;7.88;4.55;;;19.70;99.90;;;;;;5058244;28;20478;-81
2023/08/22 08:01:41;;;;;;;10.00;4.15;;;19.60;99.90;;;;;;5084806;28;20046;-83
2023/08/22 08:04:08;;;;;;;12.57;4.47;;;19.70;99.90;;;;;;5039685;28;20053;-83
2023/08/22 08:06:35;;;;;;;10.07;4.03;;;19.80;99.90;;;;;;5055059;28;20120;-83
2023/08/22 08:09:01;;;;;;;12.30;4.53;;;19.80;99.90;;;;;;5042554;28;20037;-83
2023/08/22 08:11:31;;;;;;;12.65;4.22;;;19.80;99.90;;;;;;5057845;28;20040;-83
2023/08/22 08:13:57;;;;;;;8.80;3.80;;;19.80;99.90;;;;;;5056712;28;20471;-83
2023/08/22 08:16:23;;;;;;;8.82;3.67;;;19.90;99.90;;;;;;5052660;28;20443;-83
2023/08/22 08:18:52;;;;;;;7.50;3.40;;;19.80;99.90;;;;;;5042713;28;20089;-83
2023/08/22 08:21:18;;;;;;;6.95;3.83;;;19.90;99.90;;;;;;5057133;28;20036;-83
2023/08/22 08:23:44;;;;;;;7.38;3.10;;;19.90;99.90;;;;;;5056301;28;20045;-83
2023/08/22 08:26:11;;;;;;;9.05;3.88;;;19.90;99.90;;;;;;5057279;28;20151;-83
2023/08/22 08:28:37;;;;;;;8.32;3.42;;;19.90;99.90;;;;;;5038389;28;20070;-83
2023/08/22 08:31:04;;;;;;;7.68;3.40;;;19.90;99.90;;;;;;5054073;28;20040;-83
2023/08/22 08:33:31;;;;;;;6.93;3.35;;;20.00;99.90;;;;;;5086583;28;20404;-83
2023/08/22 08:35:56;;;;;;;5.93;2.78;;;20.10;99.90;;;;;;5054461;28;20115;-82
2023/08/22 08:38:22;;;;;;;7.50;2.53;;;20.20;99.90;;;;;;5057134;28;20162;-82
2023/08/22 08:40:48;;;;;;;12.07;4.60;;;20.30;99.90;;;;;;5039595;28;20496;-82
2023/08/22 08:43:14;;;;;;;8.25;3.63;;;20.40;99.90;;;;;;5057662;28;20048;-82
2023/08/22 08:45:40;;;;;;;7.70;3.42;;;20.50;99.90;;;;;;5039191;28;20182;-83
2023/08/22 08:48:06;;;;;;;6.47;2.53;;;20.70;99.90;;;;;;5089318;28;20048;-83
2023/08/22 08:50:36;;;;;;;7.28;2.35;;;20.80;99.90;;;;;;5054504;28;20037;-83
2023/08/22 08:53:02;;;;;;;7.85;2.80;;;20.90;99.90;;;;;;5057769;28;20044;-83
2023/08/22 08:55:28;;;;;;;8.10;2.50;;;21.00;99.90;;;;;;5054034;28;20036;-83
2023/08/22 08:57:55;;;;;;;6.75;2.20;;;21.00;99.90;;;;;;5057468;28;20047;-83
2023/08/22 09:00:21;;;;;;;8.07;1.83;;;21.10;99.90;;;;;;5089500;28;20128;-83
2023/08/22 09:02:47;;;;;;;7.88;1.90;;;21.10;99.90;;;;;;5057263;28;20140;-83
2023/08/22 09:05:12;;;;;;;9.32;2.40;;;21.20;99.90;;;;;;5055888;28;20044;-84
2023/08/22 09:07:38;;;;;;;5.30;2.35;;;21.40;99.90;;;;;;5051671;28;20147;-83
2023/08/22 09:10:06;;;;;;;4.63;1.48;;;21.60;99.90;;;;;;5056062;28;20040;-83
2023/08/22 09:12:33;;;;;;;4.63;1.67;;;21.80;99.90;;;;;;5058644;28;20040;-83
2023/08/22 09:14:59;;;;;;;5.90;1.60;;;22.00;99.90;;;;;;5059209;28;20136;-84
2023/08/22 09:17:28;;;;;;;5.55;1.08;;;22.20;99.90;;;;;;5061118;28;20041;-84
2023/08/22 09:19:53;;;;;;;4.43;1.00;;;22.30;99.90;;;;;;5036907;28;20044;-84
2023/08/22 09:22:19;;;;;;;3.88;1.17;;;22.50;99.90;;;;;;5039318;28;20040;-84
2023/08/22 09:24:52;;;;;;;5.15;1.33;;;22.60;99.90;;;;;;5051276;28;20048;-83
2023/08/22 09:27:28;;;;;;;2.50;0.75;;;22.80;99.90;;;;;;5058964;28;20048;-85
2023/08/22 09:30:04;;;;;;;3.40;0.88;;;23.00;99.90;;;;;;5052710;28;20090;-81
2023/08/22 09:32:30;;;;;;;1.85;0.70;;;23.20;99.90;;;;;;5055511;28;20108;-82
2023/08/22 09:34:58;;;;;;;4.57;0.90;;;23.30;99.90;;;;;;5086709;28;20690;-82
2023/08/22 09:37:34;;;;;;;3.47;0.77;;;23.40;99.90;;;;;;5055883;28;20037;-86
2023/08/22 09:40:08;;;;;;;3.38;0.73;;;23.50;99.90;;;;;;5061623;28;20068;-84
2023/08/22 09:42:38;;;;;;;5.47;1.20;;;23.50;99.90;;;;;;5073296;28;20472;-85
2023/08/22 09:45:05;;;;;;;3.35;0.95;;;23.50;99.90;;;;;;5093668;28;20044;-84
2023/08/22 09:47:33;;;;;;;3.63;1.10;;;23.50;99.90;;;;;;5057391;28;20095;-84
2023/08/22 09:50:00;;;;;;;5.13;1.10;;;23.40;99.90;;;;;;5073587;28;20068;-83
2023/08/22 09:52:26;;;;;;;3.30;1.00;;;23.40;99.90;;;;;;5054085;28;20541;-83
2023/08/22 09:54:52;;;;;;;5.63;1.13;;;23.40;99.90;;;;;;5054190;28;20041;-84
2023/08/22 09:57:19;;;;;;;2.10;0.90;;;23.50;99.90;;;;;;5059591;28;20066;-83
2023/08/22 09:59:48;;;;;;;4.32;1.13;;;23.60;99.90;;;;;;5059183;28;20072;-83
2023/08/22 10:02:15;;;;;;;4.00;1.10;;;23.70;99.90;;;;;;5057057;28;20040;-83
2023/08/22 10:04:41;;;;;;;3.42;1.00;;;23.80;99.90;;;;;;5058180;28;20131;-83
2023/08/22 10:07:08;;;;;;;2.88;1.05;;;24.00;99.90;;;;;;5061685;28;20032;-84
2023/08/22 10:09:34;;;;;;;2.90;1.17;;;24.10;99.90;;;;;;5052695;28;20387;-83
2023/08/22 10:12:04;;;;;;;3.95;0.98;;;24.00;99.90;;;;;;5062448;28;20044;-83
2023/08/22 10:14:33;;;;;;;3.85;1.08;;;24.10;99.90;;;;;;5040330;28;20149;-84
2023/08/22 10:16:59;;;;;;;4.45;1.25;;;24.10;99.90;;;;;;5058815;28;20495;-84
2023/08/22 10:19:26;;;;;;;4.25;1.13;;;24.10;99.90;;;;;;5041368;28;20040;-84
2023/08/22 10:21:53;;;;;;;3.78;1.15;;;24.10;99.90;;;;;;5059606;28;20151;-83
2023/08/22 10:24:30;;;;;;;4.25;1.25;;;24.10;99.90;;;;;;5062639;28;20402;-84
2023/08/22 10:27:13;;;;;;;3.92;1.48;;;24.20;99.90;;;;;;5061280;28;20090;-83
2023/08/22 10:29:46;;;;;;;4.68;1.60;;;24.30;99.90;;;;;;5055667;28;20045;-83
2023/08/22 10:32:11;;;;;;;6.15;1.92;;;24.30;99.90;;;;;;5083025;28;20041;-84
2023/08/22 10:34:40;;;;;;;6.05;2.05;;;24.30;99.90;;;;;;5058206;28;20047;-84
2023/08/22 10:37:18;;;;;;;6.45;2.15;;;24.40;99.90;;;;;;5056105;28;20048;-84
2023/08/22 10:39:48;;;;;;;5.78;2.60;;;24.50;99.90;;;;;;5050875;28;20044;-84
2023/08/22 10:42:21;;;;;;;6.68;2.65;;;24.60;99.90;;;;;;5053315;28;20037;-84
2023/08/22 10:44:57;;;;;;;7.35;2.80;;;24.60;99.90;;;;;;5054548;28;20033;-83
2023/08/22 10:47:28;;;;;;;6.88;3.03;;;24.70;99.90;;;;;;5038976;28;20095;-84
2023/08/22 10:49:59;;;;;;;7.93;3.42;;;24.80;99.90;;;;;;5039429;28;20037;-84
2023/08/22 10:52:26;;;;;;;11.63;4.32;;;24.80;99.90;;;;;;5052019;28;20033;-83
2023/08/22 10:55:12;;;;;;;9.52;4.80;;;24.90;99.90;;;;;;5053499;28;20040;-84
2023/08/22 10:57:40;;;;;;;9.20;4.10;;;25.00;99.90;;;;;;5055813;28;20045;-84
2023/08/22 11:00:14;;;;;;;9.50;3.88;;;25.10;99.90;;;;;;5059118;28;20052;-84
2023/08/22 11:02:42;;;;;;;9.98;4.22;;;25.30;99.90;;;;;;5039535;28;20064;-84
2023/08/22 11:05:10;;;;;;;12.85;4.25;;;25.40;99.90;;;;;;5085307;28;20055;-84
2023/08/22 11:07:36;;;;;;;8.95;3.20;;;25.50;99.90;;;;;;5055717;28;20032;-84
2023/08/22 11:10:04;;;;;;;8.85;3.95;;;25.70;99.90;;;;;;5051690;28;20476;-84
2023/08/22 11:12:30;;;;;;;8.38;3.03;;;25.80;99.90;;;;;;5056416;28;20045;-84
2023/08/22 11:14:59;;;;;;;6.72;2.67;;;25.90;99.90;;;;;;5086423;28;20489;-83
2023/08/22 11:17:25;;;;;;;6.75;2.92;;;26.00;99.90;;;;;;5055439;28;20045;-84
2023/08/22 11:19:53;;;;;;;8.40;2.90;;;26.00;99.90;;;;;;5058591;28;20051;-85
2023/08/22 11:22:19;;;;;;;8.88;3.25;;;26.10;99.90;;;;;;5042320;28;20036;-86
2023/08/22 11:24:46;;;;;;;6.82;2.65;;;26.10;99.90;;;;;;5051499;28;20048;-80
2023/08/22 11:27:16;;;;;;;6.07;2.00;;;26.10;99.90;;;;;;5052855;28;20475;-82
2023/08/22 11:29:45;;;;;;;5.93;2.10;;;26.20;99.90;;;;;;5049283;28;20233;-83
2023/08/22 11:32:24;;;;;;;5.07;1.55;;;26.20;99.90;;;;;;5052002;28;20222;-83
2023/08/22 11:34:52;;;;;;;5.40;1.80;;;26.20;99.90;;;;;;5052764;28;20171;-83
2023/08/22 11:37:18;;;;;;;5.57;1.95;;;26.20;99.90;;;;;;5090648;28;20614;-83
2023/08/22 11:39:50;;;;;;;6.28;2.10;;;26.30;99.90;;;;;;5054270;28;20108;-86
2023/08/22 11:42:17;;;;;;;4.97;1.70;;;26.30;99.90;;;;;;5057483;28;20544;-85
2023/08/22 11:45:13;;;;;;;5.75;1.70;;;26.30;99.90;;;;;;5033199;28;20041;-86
2023/08/22 11:47:45;;;;;;;5.20;1.67;;;26.40;99.90;;;;;;5050233;28;20056;-80
2023/08/22 11:50:23;;;;;;;4.00;1.55;;;26.40;99.90;;;;;;5055927;28;20090;-81
2023/08/22 11:52:54;;;;;;;3.08;1.20;;;26.40;99.90;;;;;;5053704;28;20115;-86
2023/08/22 11:55:25;;;;;;;3.80;1.15;;;26.40;99.90;;;;;;5053561;28;20049;-88
2023/08/22 11:58:09;;;;;;;8.32;1.45;;;26.50;99.90;;;;;;5051754;28;20090;-87
2023/08/22 12:00:34;;;;;;;4.70;1.58;;;26.60;99.90;;;;;;5055303;28;20434;-86
2023/08/22 12:03:02;;;;;;;4.70;1.17;;;26.60;99.90;;;;;;5053664;28;20064;-84
2023/08/22 12:05:35;;;;;;;4.80;1.00;;;26.60;99.90;;;;;;5053973;28;20135;-83
2023/08/22 12:08:21;;;;;;;3.28;0.93;;;26.70;99.90;;;;;;5051877;28;20047;-84
2023/08/22 12:10:57;;;;;;;4.10;1.00;;;26.70;99.90;;;;;;5052626;28;20077;-81
2023/08/22 12:13:24;;;;;;;4.57;1.10;;;26.70;99.90;;;;;;5056917;28;20040;-81
2023/08/22 12:15:51;;;;;;;2.33;0.60;;;26.70;99.90;;;;;;5054256;28;20159;-81
2023/08/22 12:18:17;;;;;;;3.00;0.95;;;26.70;99.90;;;;;;5050226;28;20090;-81
2023/08/22 12:20:45;;;;;;;2.53;0.65;;;26.80;99.90;;;;;;5052844;28;20487;-80
2023/08/22 12:23:12;;;;;;;3.15;1.00;;;26.80;99.90;;;;;;5059956;28;20048;-80
2023/08/22 12:25:42;;;;;;;3.92;1.02;;;26.80;99.90;;;;;;5058112;28;20071;-81
2023/08/22 12:28:08;;;;;;;4.53;0.80;;;26.80;99.30;;;;;;5041059;28;20059;-80
2023/08/22 12:30:35;;;;;;;3.78;1.10;;;26.60;99.90;;;;;;5051358;28;20040;-84
2023/08/22 12:33:05;;;;;;;2.75;0.82;;;26.60;99.90;;;;;;5058586;28;20040;-85
2023/08/22 12:35:35;;;;;;;2.58;0.80;;;26.50;99.90;;;;;;5058328;28;20037;-84
2023/08/22 12:38:02;;;;;;;2.72;0.70;;;26.40;99.90;;;;;;5081575;28;20087;-86
2023/08/22 12:40:28;;;;;;;4.78;1.17;;;26.40;99.90;;;;;;5050087;28;20503;-86
2023/08/22 12:42:55;;;;;;;3.25;0.80;;;26.50;99.90;;;;;;5049754;28;20438;-85